createdAt,value
2022-11-08T00:01:33.057Z,3.17
2022-11-08T00:04:00.171Z,2.90
2022-11-08T00:06:45.317Z,2.95
2022-11-08T00:09:30.242Z,2.50
2022-11-08T00:12:14.972Z,3.25
2022-11-08T00:14:43.300Z,3.95
2022-11-08T00:17:10.072Z,2.20
2022-11-08T00:19:36.532Z,3.13
2022-11-08T00:22:05.777Z,2.83
2022-11-08T00:24:32.123Z,2.42
2022-11-08T00:26:58.512Z,2.75
2022-11-08T00:29:26.043Z,2.90
2022-11-08T00:31:52.525Z,2.90
2022-11-08T00:34:18.924Z,2.60
2022-11-08T00:36:47.278Z,2.47
2022-11-08T00:39:13.764Z,3.55
2022-11-08T00:41:42.500Z,3.20
2022-11-08T00:44:09.084Z,3.50
2022-11-08T00:46:37.486Z,3.50
2022-11-08T00:49:03.989Z,3.03
2022-11-08T00:51:30.351Z,2.70
2022-11-08T00:53:56.697Z,2.38
2022-11-08T00:56:23.477Z,2.53
2022-11-08T00:58:49.853Z,2.10
2022-11-08T01:01:19.051Z,2.40
2022-11-08T01:03:45.841Z,2.95
2022-11-08T01:06:13.105Z,2.00
2022-11-08T01:08:39.856Z,2.33
2022-11-08T01:11:09.300Z,2.58
2022-11-08T01:13:35.902Z,2.17
2022-11-08T01:16:09.381Z,2.22
2022-11-08T01:18:36.041Z,2.65
2022-11-08T01:21:04.985Z,3.90
2022-11-08T01:23:31.662Z,3.03
2022-11-08T01:26:01.682Z,2.67
2022-11-08T01:28:28.074Z,2.23
2022-11-08T01:30:54.408Z,2.13
2022-11-08T01:33:23.103Z,2.35
2022-11-08T01:35:51.546Z,3.17
2022-11-08T01:38:18.164Z,2.13
2022-11-08T01:40:51.359Z,2.58
2022-11-08T01:43:37.979Z,4.00
2022-11-08T01:46:27.936Z,4.25
2022-11-08T01:49:08.654Z,2.90
2022-11-08T01:51:42.804Z,2.60
2022-11-08T01:54:10.741Z,2.63
2022-11-08T01:56:38.396Z,2.33
2022-11-08T01:59:05.942Z,2.65
2022-11-08T02:01:32.462Z,3.13
2022-11-08T02:03:59.838Z,3.20
2022-11-08T02:06:26.397Z,4.68
2022-11-08T02:08:52.733Z,4.28
2022-11-08T02:11:19.130Z,3.20
2022-11-08T02:13:45.546Z,3.20
2022-11-08T02:16:15.910Z,3.85
2022-11-08T02:18:45.769Z,3.20
2022-11-08T02:21:12.078Z,3.10
2022-11-08T02:23:52.044Z,2.85
2022-11-08T02:26:20.636Z,3.40
2022-11-08T02:28:47.804Z,4.22
2022-11-08T02:31:15.325Z,3.38
2022-11-08T02:33:41.861Z,2.95
2022-11-08T02:36:09.660Z,2.80
2022-11-08T02:38:38.870Z,3.10
2022-11-08T02:41:05.280Z,3.10
2022-11-08T02:43:31.610Z,3.45
2022-11-08T02:46:03.183Z,3.38
2022-11-08T02:48:29.804Z,4.45
2022-11-08T02:50:56.155Z,3.42
2022-11-08T02:53:22.632Z,3.45
2022-11-08T02:55:49.002Z,5.90
2022-11-08T02:58:15.623Z,3.78
2022-11-08T03:00:42.288Z,3.80
2022-11-08T03:03:10.744Z,4.57
2022-11-08T03:05:37.083Z,4.72
2022-11-08T03:08:03.498Z,3.35
2022-11-08T03:10:30.437Z,4.18
2022-11-08T03:12:57.419Z,3.90
2022-11-08T03:15:24.081Z,4.20
2022-11-08T03:17:50.453Z,4.25
2022-11-08T03:20:16.941Z,4.45
2022-11-08T03:22:43.315Z,4.95
2022-11-08T03:25:09.816Z,4.15
2022-11-08T03:27:36.197Z,3.70
2022-11-08T03:30:02.813Z,4.25
2022-11-08T03:32:29.189Z,4.50
2022-11-08T03:34:55.553Z,3.85
2022-11-08T03:37:23.134Z,4.55
2022-11-08T03:39:51.871Z,5.40
2022-11-08T03:42:18.250Z,4.00
2022-11-08T03:44:47.049Z,4.93
2022-11-08T03:47:13.428Z,4.93
2022-11-08T03:49:39.768Z,4.65
2022-11-08T03:52:07.396Z,5.10
2022-11-08T03:54:33.844Z,4.72
2022-11-08T03:57:00.231Z,6.32
2022-11-08T03:59:26.562Z,4.72
2022-11-08T04:01:53.035Z,4.90
2022-11-08T04:04:19.575Z,5.28
2022-11-08T04:06:45.919Z,4.95
2022-11-08T04:09:20.394Z,5.85
2022-11-08T04:12:06.517Z,4.70
2022-11-08T04:14:54.139Z,5.13
2022-11-08T04:17:42.337Z,5.20
2022-11-08T04:20:27.836Z,6.15
2022-11-08T04:22:54.179Z,5.93
2022-11-08T04:25:20.515Z,5.85
2022-11-08T04:27:46.876Z,5.55
2022-11-08T04:30:13.328Z,5.90
2022-11-08T04:32:39.684Z,5.50
2022-11-08T04:35:06.111Z,5.10
2022-11-08T04:37:32.438Z,4.93
2022-11-08T04:39:58.780Z,5.50
2022-11-08T04:42:25.113Z,5.60
2022-11-08T04:44:58.968Z,5.28
2022-11-08T04:47:25.320Z,5.55
2022-11-08T04:49:51.817Z,5.05
2022-11-08T04:52:21.195Z,4.60
2022-11-08T04:54:47.614Z,4.72
2022-11-08T04:57:14.049Z,5.50
2022-11-08T04:59:40.403Z,5.15
2022-11-08T05:02:09.960Z,5.32
2022-11-08T05:04:36.352Z,8.82
2022-11-08T05:07:02.726Z,6.60
2022-11-08T05:09:29.055Z,6.00
2022-11-08T05:11:55.414Z,5.35
2022-11-08T05:14:21.773Z,5.10
2022-11-08T05:16:48.308Z,8.43
2022-11-08T05:19:37.404Z,5.47
2022-11-08T05:22:22.357Z,8.25
2022-11-08T05:24:48.760Z,4.80
2022-11-08T05:27:15.132Z,5.20
2022-11-08T05:29:45.089Z,5.38
2022-11-08T05:32:13.060Z,5.50
2022-11-08T05:34:39.385Z,5.95
2022-11-08T05:37:05.760Z,5.97
2022-11-08T05:39:32.426Z,5.15
2022-11-08T05:41:58.924Z,5.22
2022-11-08T05:44:25.349Z,5.50
2022-11-08T05:46:51.762Z,5.25
2022-11-08T05:49:18.201Z,5.70
2022-11-08T05:51:44.584Z,6.25
2022-11-08T05:54:13.015Z,6.35
2022-11-08T05:56:39.544Z,5.82
2022-11-08T05:59:06.101Z,5.10
2022-11-08T06:01:32.506Z,5.72
2022-11-08T06:03:58.948Z,6.22
2022-11-08T06:06:25.334Z,4.65
2022-11-08T06:08:53.814Z,5.00
2022-11-08T06:11:22.560Z,6.72
2022-11-08T06:13:49.155Z,10.18
2022-11-08T06:16:16.505Z,5.50
2022-11-08T06:18:43.376Z,5.13
2022-11-08T06:21:14.194Z,4.43
2022-11-08T06:23:40.783Z,4.57
2022-11-08T06:26:07.388Z,5.22
2022-11-08T06:28:34.576Z,4.88
2022-11-08T06:31:01.734Z,5.10
2022-11-08T06:33:28.692Z,4.47
2022-11-08T06:35:55.134Z,6.50
2022-11-08T06:38:21.584Z,5.00
2022-11-08T06:40:48.170Z,5.07
2022-11-08T06:43:19.371Z,4.25
2022-11-08T06:45:46.550Z,5.85
2022-11-08T06:48:12.957Z,6.80
2022-11-08T06:50:39.315Z,5.53
2022-11-08T06:53:06.777Z,4.82
2022-11-08T06:55:33.873Z,6.20
2022-11-08T06:58:00.284Z,4.25
2022-11-08T07:00:27.251Z,4.57
2022-11-08T07:02:54.403Z,4.38
2022-11-08T07:05:21.244Z,4.75
2022-11-08T07:07:52.478Z,4.38
2022-11-08T07:10:19.496Z,4.28
2022-11-08T07:12:46.044Z,4.55
2022-11-08T07:15:12.903Z,4.28
2022-11-08T07:17:39.298Z,5.30
2022-11-08T07:20:06.216Z,4.97
2022-11-08T07:22:32.582Z,6.13
2022-11-08T07:24:58.902Z,4.00
2022-11-08T07:27:25.262Z,4.43
2022-11-08T07:29:51.604Z,3.65
2022-11-08T07:32:18.013Z,4.70
2022-11-08T07:34:44.373Z,4.07
2022-11-08T07:37:10.738Z,4.38
2022-11-08T07:39:37.113Z,3.67
2022-11-08T07:42:03.507Z,4.32
2022-11-08T07:44:29.994Z,4.18
2022-11-08T07:46:56.368Z,3.60
2022-11-08T07:49:22.797Z,4.10
2022-11-08T07:51:49.162Z,3.97
2022-11-08T07:54:17.642Z,4.20
2022-11-08T07:56:44.080Z,5.93
2022-11-08T07:59:10.503Z,4.00
2022-11-08T08:01:36.973Z,3.65
2022-11-08T08:04:06.505Z,3.95
2022-11-08T08:06:32.840Z,4.40
2022-11-08T08:08:59.237Z,3.83
2022-11-08T08:11:30.826Z,4.40
2022-11-08T08:14:01.298Z,4.03
2022-11-08T08:16:27.643Z,3.95
2022-11-08T08:18:56.684Z,4.22
2022-11-08T08:21:23.302Z,4.03
2022-11-08T08:23:49.661Z,4.07
2022-11-08T08:26:16.010Z,4.15
2022-11-08T08:28:42.363Z,3.85
2022-11-08T08:31:11.300Z,4.20
2022-11-08T08:33:38.294Z,3.92
2022-11-08T08:36:05.233Z,3.45
2022-11-08T08:38:32.803Z,3.30
2022-11-08T08:40:59.885Z,5.47
2022-11-08T08:43:27.716Z,3.85
2022-11-08T08:45:54.789Z,5.28
2022-11-08T08:48:21.238Z,3.60
2022-11-08T08:50:48.412Z,3.30
2022-11-08T08:53:14.962Z,3.08
2022-11-08T08:55:42.510Z,3.53
2022-11-08T08:58:09.430Z,4.40
2022-11-08T09:03:22.407Z,2.50
2022-11-08T09:05:49.057Z,2.63
2022-11-08T09:08:15.905Z,2.85
2022-11-08T09:10:43.225Z,2.85
2022-11-08T09:13:09.651Z,2.50
2022-11-08T09:15:36.061Z,2.38
2022-11-08T09:18:02.530Z,2.28
2022-11-08T09:20:29.087Z,2.30
2022-11-08T09:22:55.607Z,2.38
2022-11-08T09:25:21.987Z,2.42
2022-11-08T09:27:48.384Z,2.38
2022-11-08T09:30:14.739Z,2.45
2022-11-08T09:35:27.678Z,1.92
2022-11-08T09:37:54.409Z,1.75
2022-11-08T09:40:23.625Z,1.92
2022-11-08T09:42:55.229Z,2.20
2022-11-08T09:45:22.959Z,2.38
2022-11-08T09:47:53.122Z,2.33
2022-11-08T09:50:26.531Z,2.40
2022-11-08T09:52:58.105Z,1.50
2022-11-08T09:55:34.953Z,1.73
2022-11-08T09:58:01.282Z,2.08
2022-11-08T10:00:28.139Z,2.47
2022-11-08T10:02:54.619Z,4.32
2022-11-08T10:05:21.207Z,1.90
2022-11-08T10:08:06.312Z,1.92
2022-11-08T10:10:32.666Z,1.42
2022-11-08T10:13:12.882Z,1.33
2022-11-08T10:15:54.270Z,2.22
2022-11-08T10:18:33.115Z,1.75
2022-11-08T10:20:59.467Z,1.45
2022-11-08T10:23:36.838Z,1.58
2022-11-08T10:26:12.128Z,1.73
2022-11-08T10:29:00.210Z,1.35
2022-11-08T10:31:28.409Z,1.48
2022-11-08T10:33:55.773Z,1.85
2022-11-08T10:36:37.373Z,1.60
2022-11-08T10:39:09.938Z,1.40
2022-11-08T10:41:58.949Z,1.35
2022-11-08T10:44:35.056Z,1.30
2022-11-08T10:47:05.920Z,1.73
2022-11-08T10:49:34.276Z,1.85
2022-11-08T10:52:16.439Z,2.58
2022-11-08T10:54:56.278Z,2.28
2022-11-08T10:57:25.880Z,2.55
2022-11-08T10:59:52.567Z,2.78
2022-11-08T11:02:22.033Z,2.92
2022-11-08T11:04:48.626Z,4.90
2022-11-08T11:07:25.711Z,3.58
2022-11-08T11:09:52.364Z,4.20
2022-11-08T11:12:18.716Z,3.80
2022-11-08T11:14:45.096Z,4.47
2022-11-08T11:17:16.585Z,4.20
2022-11-08T11:19:44.557Z,4.63
2022-11-08T11:22:12.183Z,5.65
2022-11-08T11:24:50.841Z,6.53
2022-11-08T11:27:23.190Z,5.60
2022-11-08T11:29:49.557Z,6.82
2022-11-08T11:32:23.939Z,6.53
2022-11-08T11:34:56.145Z,9.00
2022-11-08T11:37:30.373Z,6.38
2022-11-08T11:40:17.051Z,7.43
2022-11-08T11:42:46.254Z,6.50
2022-11-08T11:45:31.555Z,6.75
2022-11-08T11:48:01.335Z,8.55
2022-11-08T11:50:40.823Z,6.72
2022-11-08T11:53:11.518Z,9.15
2022-11-08T11:55:52.877Z,8.20
2022-11-08T11:58:31.426Z,7.10
2022-11-08T12:01:10.464Z,6.10
2022-11-08T12:03:39.558Z,7.22
2022-11-08T12:06:21.259Z,7.85
2022-11-08T12:08:53.723Z,7.50
2022-11-08T12:11:20.055Z,7.30
2022-11-08T12:13:58.854Z,6.78
2022-11-08T12:16:45.520Z,7.55
2022-11-08T12:19:28.924Z,7.22
2022-11-08T12:22:14.250Z,6.72
2022-11-08T12:24:59.394Z,7.38
2022-11-08T12:27:38.978Z,6.40
2022-11-08T12:30:21.441Z,8.32
2022-11-08T12:33:06.431Z,6.65
2022-11-08T12:35:48.472Z,6.53
2022-11-08T12:38:17.996Z,7.82
2022-11-08T12:40:48.866Z,6.40
2022-11-08T12:43:32.002Z,5.88
2022-11-08T12:46:08.976Z,7.30
2022-11-08T12:48:41.558Z,6.50
2022-11-08T12:51:11.512Z,6.68
2022-11-08T12:54:04.208Z,7.37
2022-11-08T12:56:36.080Z,5.40
2022-11-08T12:59:03.243Z,6.75
2022-11-08T13:01:30.264Z,6.40
2022-11-08T13:04:13.323Z,7.45
2022-11-08T13:06:46.328Z,5.53
2022-11-08T13:09:31.980Z,6.82
2022-11-08T13:12:25.228Z,6.10
2022-11-08T13:14:52.036Z,6.65
2022-11-08T13:17:22.953Z,5.60
2022-11-08T13:19:52.055Z,8.40
2022-11-08T13:22:33.631Z,5.82
2022-11-08T13:25:01.054Z,7.75
2022-11-08T13:27:31.843Z,5.50
2022-11-08T13:30:18.568Z,5.97
2022-11-08T13:33:03.740Z,5.70
2022-11-08T13:35:37.576Z,6.18
2022-11-08T13:38:26.832Z,5.78
2022-11-08T13:40:56.412Z,5.75
2022-11-08T13:43:24.472Z,5.68
2022-11-08T13:45:51.177Z,7.25
2022-11-08T13:48:25.411Z,6.20
2022-11-08T13:50:55.904Z,5.65
2022-11-08T13:53:22.277Z,7.40
2022-11-08T13:55:48.635Z,5.75
2022-11-08T13:58:30.383Z,5.32
2022-11-08T14:00:57.272Z,8.30
2022-11-08T14:03:40.211Z,5.82
2022-11-08T14:06:14.136Z,6.60
2022-11-08T14:08:40.460Z,5.95
2022-11-08T14:11:06.786Z,5.63
2022-11-08T14:13:40.371Z,5.55
2022-11-08T14:16:12.058Z,6.22
2022-11-08T14:18:39.309Z,5.80
2022-11-08T14:21:06.700Z,5.53
2022-11-08T14:23:40.437Z,6.35
2022-11-08T14:26:06.907Z,7.00
2022-11-08T14:28:33.268Z,7.43
2022-11-08T14:31:00.818Z,5.97
2022-11-08T14:33:28.151Z,6.43
2022-11-08T14:36:02.255Z,7.32
2022-11-08T14:38:29.712Z,6.72
2022-11-08T14:40:58.565Z,6.35
2022-11-08T14:43:25.554Z,6.03
2022-11-08T14:45:53.682Z,6.68
2022-11-08T14:48:22.558Z,6.40
2022-11-08T14:50:48.986Z,6.68
2022-11-08T14:53:24.522Z,7.03
2022-11-08T14:55:55.943Z,7.10
2022-11-08T14:58:22.301Z,7.15
2022-11-08T15:00:49.699Z,6.18
2022-11-08T15:03:17.632Z,6.78
2022-11-08T15:05:48.143Z,6.25
2022-11-08T15:08:34.961Z,6.15
2022-11-08T15:11:05.787Z,6.25
2022-11-08T15:13:38.348Z,6.45
2022-11-08T15:16:05.269Z,6.78
2022-11-08T15:18:33.574Z,7.45
2022-11-08T15:21:04.875Z,6.75
2022-11-08T15:23:34.191Z,7.70
2022-11-08T15:26:00.679Z,5.85
2022-11-08T15:28:34.076Z,6.18
2022-11-08T15:31:04.474Z,6.45
2022-11-08T15:33:37.988Z,6.28
2022-11-08T15:36:14.570Z,7.05
2022-11-08T15:38:42.175Z,7.28
2022-11-08T15:41:27.606Z,6.63
2022-11-08T15:44:14.443Z,6.28
2022-11-08T15:46:40.976Z,7.00
2022-11-08T15:49:29.486Z,8.63
2022-11-08T15:51:56.638Z,7.88
2022-11-08T15:54:23.976Z,6.63
2022-11-08T15:56:51.359Z,6.53
2022-11-08T15:59:21.438Z,6.53
2022-11-08T16:01:53.998Z,6.47
2022-11-08T16:04:20.582Z,7.10
2022-11-08T16:06:47.044Z,7.00
2022-11-08T16:09:13.575Z,6.60
2022-11-08T16:11:40.258Z,6.15
2022-11-08T16:14:07.100Z,5.82
2022-11-08T16:16:35.275Z,6.60
2022-11-08T16:19:01.779Z,6.20
2022-11-08T16:21:28.364Z,6.57
2022-11-08T16:23:54.705Z,6.53
2022-11-08T16:26:21.116Z,7.10
2022-11-08T16:28:47.483Z,5.82
2022-11-08T16:31:14.980Z,6.50
2022-11-08T16:33:42.544Z,5.93
2022-11-08T16:36:16.542Z,6.50
2022-11-08T16:38:46.211Z,6.38
2022-11-08T16:41:15.356Z,6.45
2022-11-08T16:43:41.732Z,6.28
2022-11-08T16:46:08.267Z,6.47
2022-11-08T16:48:36.890Z,6.28
2022-11-08T16:51:04.668Z,6.15
2022-11-08T16:53:32.221Z,5.68
2022-11-08T16:55:58.640Z,5.57
2022-11-08T16:58:28.103Z,6.20
2022-11-08T17:00:54.604Z,5.75
2022-11-08T17:03:24.650Z,6.25
2022-11-08T17:05:51.942Z,5.33
2022-11-08T17:08:18.838Z,5.70
2022-11-08T17:10:45.491Z,6.20
2022-11-08T17:13:15.799Z,5.68
2022-11-08T17:15:42.524Z,5.95
2022-11-08T17:18:13.620Z,6.07
2022-11-08T17:20:39.965Z,5.65
2022-11-08T17:23:06.948Z,5.65
2022-11-08T17:25:35.061Z,5.55
2022-11-08T17:28:01.408Z,6.88
2022-11-08T17:30:27.833Z,6.30
2022-11-08T17:32:54.248Z,5.75
2022-11-08T17:35:20.674Z,5.65
2022-11-08T17:37:47.243Z,5.65
2022-11-08T17:40:13.596Z,5.28
2022-11-08T17:42:39.965Z,5.75
2022-11-08T17:45:08.016Z,5.32
2022-11-08T17:47:36.910Z,5.57
2022-11-08T17:50:03.436Z,5.10
2022-11-08T17:52:30.007Z,4.90
2022-11-08T17:54:56.450Z,4.80
2022-11-08T17:57:22.790Z,5.22
2022-11-08T17:59:49.284Z,4.88
2022-11-08T18:02:15.744Z,5.32
2022-11-08T18:04:42.257Z,5.15
2022-11-08T18:07:10.532Z,4.50
2022-11-08T18:09:36.927Z,5.13
2022-11-08T18:12:03.412Z,4.28
2022-11-08T18:14:29.733Z,4.07
2022-11-08T18:16:56.184Z,4.13
2022-11-08T18:19:22.896Z,3.50
2022-11-08T18:21:49.293Z,3.65
2022-11-08T18:24:16.143Z,3.58
2022-11-08T18:26:42.582Z,3.60
2022-11-08T18:29:09.153Z,4.93
2022-11-08T18:31:35.708Z,3.80
2022-11-08T18:34:02.167Z,3.30
2022-11-08T18:36:29.583Z,5.45
2022-11-08T18:38:57.378Z,3.08
2022-11-08T18:41:25.618Z,3.15
2022-11-08T18:43:52.376Z,3.63
2022-11-08T18:46:20.158Z,3.20
2022-11-08T18:48:46.864Z,3.13
2022-11-08T18:51:14.583Z,3.25
2022-11-08T18:53:41.227Z,3.45
2022-11-08T18:56:08.090Z,3.10
2022-11-08T18:58:34.735Z,3.13
2022-11-08T19:01:01.141Z,3.92
2022-11-08T19:03:27.964Z,3.33
2022-11-08T19:05:56.277Z,3.13
2022-11-08T19:08:25.208Z,3.08
2022-11-08T19:10:56.033Z,3.67
2022-11-08T19:13:23.692Z,3.20
2022-11-08T19:15:59.077Z,3.42
2022-11-08T19:18:26.257Z,4.20
2022-11-08T19:20:56.186Z,2.95
2022-11-08T19:23:22.844Z,3.42
2022-11-08T19:25:58.718Z,4.00
2022-11-08T19:28:28.006Z,3.28
2022-11-08T19:31:01.274Z,3.63
2022-11-08T19:33:28.322Z,3.55
2022-11-08T19:35:54.871Z,3.38
2022-11-08T19:38:22.241Z,3.65
2022-11-08T19:40:48.842Z,4.03
2022-11-08T19:43:16.281Z,3.80
2022-11-08T19:45:47.802Z,3.72
2022-11-08T19:48:17.544Z,3.03
2022-11-08T19:50:44.214Z,3.17
2022-11-08T19:53:12.468Z,4.00
2022-11-08T19:55:38.948Z,3.60
2022-11-08T19:58:05.338Z,3.80
2022-11-08T20:00:31.799Z,3.80
2022-11-08T20:02:58.176Z,3.63
2022-11-08T20:05:24.576Z,3.40
2022-11-08T20:07:51.198Z,3.70
2022-11-08T20:10:17.627Z,3.65
2022-11-08T20:12:44.006Z,3.88
2022-11-08T20:15:10.567Z,3.88
2022-11-08T20:17:36.971Z,4.20
2022-11-08T20:20:03.997Z,3.90
2022-11-08T20:22:30.379Z,5.07
2022-11-08T20:24:56.760Z,3.92
2022-11-08T20:27:23.079Z,4.70
2022-11-08T20:29:49.507Z,4.35
2022-11-08T20:32:15.857Z,5.10
2022-11-08T20:34:42.185Z,4.50
2022-11-08T20:37:08.679Z,4.88
2022-11-08T20:39:35.003Z,5.00
2022-11-08T20:42:01.563Z,4.60
2022-11-08T20:44:27.913Z,4.78
2022-11-08T20:46:54.406Z,5.32
2022-11-08T20:49:20.737Z,4.90
2022-11-08T20:51:47.061Z,5.63
2022-11-08T20:54:13.589Z,5.13
2022-11-08T20:56:40.120Z,4.80
2022-11-08T20:59:09.808Z,5.57
2022-11-08T21:01:36.283Z,6.13
2022-11-08T21:04:03.039Z,5.35
2022-11-08T21:06:32.911Z,5.97
2022-11-08T21:09:16.599Z,5.47
2022-11-08T21:11:48.126Z,7.30
2022-11-08T21:14:14.888Z,6.00
2022-11-08T21:17:14.735Z,6.25
2022-11-08T21:19:27.641Z,6.03
2022-11-08T21:22:13.971Z,7.93
2022-11-08T21:24:40.996Z,6.25
2022-11-08T21:27:07.339Z,9.32
2022-11-08T21:29:33.676Z,6.20
2022-11-08T21:32:00.050Z,8.43
2022-11-08T21:34:32.065Z,6.25
2022-11-08T21:36:59.924Z,7.05
2022-11-08T21:39:26.357Z,6.75
2022-11-08T21:41:52.801Z,5.93
2022-11-08T21:44:19.845Z,7.40
2022-11-08T21:46:46.337Z,6.85
2022-11-08T21:49:13.088Z,5.28
2022-11-08T21:51:41.540Z,5.80
2022-11-08T21:54:07.906Z,5.18
2022-11-08T21:56:34.612Z,5.68
2022-11-08T21:59:01.479Z,5.47
2022-11-08T22:01:30.606Z,5.47
2022-11-08T22:03:57.792Z,5.38
2022-11-08T22:06:24.176Z,7.18
2022-11-08T22:08:50.598Z,5.40
2022-11-08T22:11:16.940Z,5.55
2022-11-08T22:13:43.289Z,4.30
2022-11-08T22:16:09.636Z,5.32
2022-11-08T22:19:03.187Z,6.47
2022-11-08T22:21:38.198Z,4.68
2022-11-08T22:24:05.412Z,4.50
2022-11-08T22:26:31.815Z,5.50
2022-11-08T22:28:58.129Z,4.55
2022-11-08T22:31:24.561Z,4.10
2022-11-08T22:33:50.965Z,5.15
2022-11-08T22:36:19.269Z,4.50
2022-11-08T22:38:46.110Z,4.07
2022-11-08T22:41:19.631Z,4.35
2022-11-08T22:43:46.059Z,4.13
2022-11-08T22:46:12.444Z,4.65
2022-11-08T22:48:38.885Z,3.90
2022-11-08T22:51:05.311Z,3.53
2022-11-08T22:53:31.681Z,4.18
2022-11-08T22:55:58.092Z,4.18
2022-11-08T22:58:24.486Z,3.60
2022-11-08T23:00:50.802Z,4.03
2022-11-08T23:03:17.355Z,4.03
2022-11-08T23:05:48.391Z,3.63
2022-11-08T23:11:04.308Z,3.97
2022-11-08T23:13:49.182Z,5.07
2022-11-08T23:16:33.913Z,3.90
2022-11-08T23:19:28.690Z,3.92
2022-11-08T23:22:13.957Z,4.00
2022-11-08T23:24:40.711Z,3.60
2022-11-08T23:27:25.477Z,4.40
2022-11-08T23:30:10.246Z,3.45
2022-11-08T23:32:36.662Z,4.05
2022-11-08T23:35:03.106Z,4.18
2022-11-08T23:37:29.750Z,3.58
2022-11-08T23:40:14.791Z,3.63
2022-11-08T23:42:59.627Z,4.53
2022-11-08T23:45:26.177Z,3.72
2022-11-08T23:47:53.206Z,4.18
2022-11-08T23:50:19.597Z,4.15
2022-11-08T23:52:45.939Z,4.00
2022-11-08T23:55:12.390Z,3.97
2022-11-08T23:57:38.801Z,4.75
